Edoardo Bertoni

Recruteur en chef - Como
20 Févr 2028
Dimanche
Processus

Personnalité

Adaptabilité (2) Ambition (5) Controverse (8) Loyauté (10) Pression (19) Professionnalisme (2) Sportivité (4) Tempérament (5)

Profil

Style d'entraînement Démocratique
Diplôme Continental A
Détermination 5
Gestion des joueurs 7
Motivation 9
Discipline 4
Satisfaction professionnelle
100%
Fatigue
0%
Rôle Recruteur en chef
Salaire 48.5K p/s
Contrat 14.03.2028

Performance

Comportement Bon
Efficacité de l'entraînement
44%
Développement des joueurs
60%
Prévention des blessures
30%
Mise en place tactique
60%

Événements récents

Négociation de contrat entamée maintenant
A participé à une réunion de recrutement maintenant
A recommandé une cible de transfert maintenant
A participé à une réunion de recrutement maintenant
A participé à une réunion de recrutement maintenant
Négociation de contrat entamée maintenant
Négociation de contrat entamée maintenant
Négociation de contrat entamée maintenant

Suivi en cours

141
Joueur Club Statut Capacité Confiance Observé Dernière observation Dernier vote
Josh King Chelsea Actif 145 / 141 40% 6 07.01.2028 -
Othniël Raterink Cagliari Actif 111 / 131 40% 2 07.01.2028 -
Mats Egbring Heerenveen Actif 105 / 114 40% 1 07.01.2028 -
Mao Hosoya Everton Négociation 134 / 135 67% 1 01.01.2028 Approuver
Avery Appiah Ajax Actif 119 / 118 40% 3 31.12.2027 -
Veljko Milosavljević Aston Villa Actif 139 / 151 40% 2 31.12.2027 -
Eduardo Felicíssimo Sporting CP Actif 121 / 136 40% 2 13.12.2027 Plus d'infos
Hervin Goyes Deportivo Pasto Actif 117 / 105 40% 5 13.12.2027 -
Dmitry Pestryakov Dinamo Moscow Perdu 121 / 135 40% 4 12.12.2027 -
Christ Inao Oulaï Fiorentina Actif 147 / 145 40% 7 12.12.2027 -
Fillip Jenssen Riise Stabaek Actif 96 / 121 40% 6 11.12.2027 -
Tiago Freitas Benfica Actif 115 / 132 40% 4 11.12.2027 -
Martín Jiménez Audax Italiano Actif 108 / 103 40% 1 10.12.2027 -
Davide Bartesaghi AC Milan Actif 143 / 132 40% 2 07.12.2027 -
Nejc Viher NK Maribor Actif 123 / 125 40% 3 07.12.2027 -
Aleko Basiladze Slovan Liberec Actif 108 / 133 40% 1 07.12.2027 -
Adam Bakoune Ospitaletto Actif 104 / 108 40% 2 04.12.2027 -
Gonçalo Oliveira Benfica Actif 115 / 118 40% 2 03.12.2027 -
Khalis Merah Toulouse FC Actif 126 / 131 40% 1 03.12.2027 -
Germán Barbas Penarol Actif 103 / 102 40% 1 02.12.2027 -
Daniel Banjaqui Benfica Actif 114 / 130 40% 2 29.11.2027 -
Matvey Bardachev Zenit Actif 103 / 115 40% 1 29.11.2027 -
Mattia Puzone Siracusa Actif 105 / 106 40% 1 29.11.2027 -
Juan Morán Godoy Cruz Actif 110 / 123 40% 1 28.11.2027 -
Mikkel Hope Haugesund Actif 106 / 109 40% 2 27.11.2027 -
Noahkai Banks Hamburger SV Actif 142 / 144 40% 2 27.11.2027 -
Alejandro Almaraz Nueva Chicago Actif 103 / 125 40% 4 26.11.2027 -
Niccolò Fortini Fiorentina Actif 133 / 143 40% 2 26.11.2027 -
Sascha Britschgi Padova Actif 131 / 132 40% 4 25.11.2027 -
Tobias Moi Bodo/Glimt Actif 101 / 115 40% 3 22.11.2027 -
Darryl Bakola Padova Actif 111 / 115 40% 1 22.11.2027 -
Rivaldo Grobler Free State Stars Actif 94 / 102 40% 3 21.11.2027 -
Jorthy Mokio ADO Den Haag Actif 138 / 130 40% 1 21.11.2027 -
João Teixeira Porto Actif 109 / 123 40% 1 21.11.2027 -
Tiago Parente Benfica Actif 114 / 110 40% 5 20.11.2027 -
Jorrel Hato Chelsea Actif 155 / 154 40% 2 19.11.2027 -
Olivier Mambwa Young Boys Actif 114 / 126 40% 2 19.11.2027 -
Mauro Carrizo Atlético Tucumán Actif 92 / 122 40% 2 14.11.2027 -
Agustín Medina Valencia Actif 119 / 128 40% 3 13.11.2027 -
Matías Gómez Granada Actif 113 / 127 40% 2 12.11.2027 -
Jovan Milosavljević Kalmar FF Actif 112 / 111 40% 3 12.11.2027 -
Dylan Gorosito Villarreal Actif 111 / 132 40% 2 11.11.2027 -
Thiago Helguera Braga Actif 116 / 124 40% 3 10.11.2027 -
Nazareno Roselli Defensa y Justicia Actif 121 / 107 40% 2 09.11.2027 -
Bahia Criciuma Actif 105 / 130 40% 1 09.11.2027 -
Luka Vušković Manchester United Actif 151 / 147 40% 2 02.11.2027 -
Juan Giménez Celta Actif 121 / 131 40% 2 31.10.2027 -
Sam Curtis Cambridge United Actif 110 / 114 40% 2 31.10.2027 -
Dayann Methalie Aston Villa Actif 130 / 149 40% 2 30.10.2027 -
Noel Sernelius IFK Norrkoping Actif 115 / 95 40% 1 25.10.2027 -
Zahir Ibarra Defensa y Justicia Actif 111 / 121 40% 1 24.10.2027 -
Andrea Cogoni Cosenza Actif 103 / 109 40% 1 24.10.2027 -
Adam Aznou Everton Actif 121 / 125 40% 1 22.10.2027 -
Agustín Obregón River Plate Actif 107 / 122 40% 4 20.10.2027 -
Sergiu Perciun Torino Actif 106 / 116 40% 1 19.10.2027 -
Narcis Ilaş CFR Cluj Actif 122 / 126 40% 1 18.10.2027 -
Tobías Andrada Virtus Entella Actif 125 / 140 40% 1 18.10.2027 -
Tobias Slotsager Casertana Actif 115 / 126 40% 1 17.10.2027 -
Felipe Obradovich Ferro Carril Oeste Actif 101 / 107 40% 1 14.10.2027 -
Julián Bazán Philadelphia Union Actif 114 / 123 40% 1 12.10.2027 -
Miguel Figueiredo Cesena Actif 118 / 120 40% 1 10.10.2027 -
Lucio Cruceño Godoy Cruz Actif 89 / 121 40% 1 04.10.2027 -
Riley Owen Trento Actif 100 / 123 40% 2 16.08.2027 -
Joane Gadou Borussia Dortmund Actif 124 / 143 40% 1 09.08.2027 -
Leonardo Mendicino Bari Actif 121 / 125 40% 1 09.08.2027 -
Martim Cunha Porto Actif 98 / 104 40% 1 02.08.2027 -
Jofre Torrents Ajax Actif 125 / 139 40% 1 28.06.2027 -
Samuel Lucero Defensa y Justicia Actif 104 / 120 40% 4 05.06.2027 -
Ezra Mayers West Ham United Actif 113 / 135 40% 1 04.06.2027 -
Devyne Rensch AS Roma Actif 139 / 136 40% 2 18.01.2027 -
Rubens Dinamo Moscow Actif 119 / 134 40% 1 18.01.2027 -
Yaroslav Gladyshev Dinamo Moscow Actif 125 / 111 40% 1 02.01.2027 -
Raoul Bellanova Atalanta Actif 143 / 146 40% 4 31.12.2026 -
Andrea Colpani Monza Actif 133 / 139 40% 2 28.12.2026 -
Alessandro Bianco Modena Actif 135 / 140 40% 1 28.12.2026 -
Zakaria Aboukhlal Torino Actif 143 / 143 40% 2 27.12.2026 -
Pontus Almqvist Parma Actif 134 / 117 40% 1 27.12.2026 -
Nicolò Cambiaghi Bologna Actif 136 / 149 40% 8 25.12.2026 Observer
Ruben van Bommel Ferencvaros Actif 125 / 139 40% 2 25.12.2026 -
Lameck Banda Lecce Actif 124 / 139 40% 1 24.12.2026 -
Reda Khadra Qarabag Actif 123 / 132 40% 2 22.12.2026 -
Nicolò Zaniolo Udinese Actif 135 / 149 40% 1 21.12.2026 -
Petar Stanić Ludogorets Actif 136 / 118 40% 2 20.12.2026 -
Assane Diao Lazio Actif 142 / 154 40% 3 18.12.2026 -
Ardon Jashari AC Milan Actif 129 / 138 40% 1 18.12.2026 -
Endrick Real Madrid Actif 141 / 149 40% 1 16.12.2026 -
Santiago Pierotti Lecce Actif 130 / 124 40% 1 10.12.2026 -
Aleksa Terzić Frosinone Actif 133 / 128 40% 1 10.12.2026 -
Matko Miljevic Racing Club Actif 136 / 145 40% 2 09.12.2026 -
Filippo Ranocchia Palermo Actif 130 / 129 40% 2 09.12.2026 -
Nadir Zortea Bologna Actif 132 / 133 40% 2 09.12.2026 -
Kamaldeen Sulemana Atalanta Actif 142 / 131 40% 2 07.12.2026 Plus d'infos
Samuele Angori Pisa Actif 134 / 130 40% 1 07.12.2026 -
Alan Lescano Argentinos Juniors Actif 134 / 147 40% 6 06.12.2026 -
Marcelo Allende Mamelodi Sundowns Actif 119 / 125 40% 2 03.12.2026 -
Adrián Bernabé Parma Actif 144 / 134 40% 3 01.12.2026 -
Alessio Zerbin Frosinone Actif 127 / 118 40% 1 01.12.2026 -
Tiago Palacios Estudiantes Actif 133 / 132 40% 3 29.11.2026 -
Matvey Kislyak CSKA Moscow Actif 129 / 156 40% 1 18.11.2026 -
Nikita Stoinov Dinamo Bucharest Actif 117 / 129 40% 1 17.11.2026 -
Lewis Ferguson Bologna Actif 151 / 143 40% 2 14.11.2026 -
Mattia Felici Cagliari Actif 130 / 138 40% 2 14.11.2026 -
Tijjani Noslin Lazio Actif 133 / 143 40% 1 14.11.2026 -
Juan Miranda Bologna Actif 142 / 150 40% 4 13.11.2026 -
Gustav Isaksen Lazio Actif 152 / 140 40% 2 13.11.2026 -
Antony Portland Timbers Actif 135 / 124 40% 1 13.11.2026 -
Kristian Thorstvedt Sassuolo Actif 136 / 134 40% 1 12.11.2026 -
Ole-Didrik Blomberg Bodo/Glimt Actif 126 / 118 40% 1 11.11.2026 -
Orkun Kökçü Besiktas Actif 152 / 155 40% 2 07.11.2026 -
Armand Laurienté Sassuolo Actif 127 / 134 40% 1 07.11.2026 -
Iván Angulo Orlando City Actif 121 / 140 40% 1 06.11.2026 -
Alex Luna Instituto Actif 120 / 112 40% 1 03.11.2026 -
Mattéo Tramoni Pisa Actif 134 / 118 40% 1 02.11.2026 -
Franco Ibarra Rosario Central Actif 125 / 114 40% 1 30.10.2026 -
Gianluca Busio Venezia Actif 132 / 137 40% 2 25.10.2026 -
Luciano Gondou CSKA Moscow Actif 136 / 121 40% 1 25.10.2026 -
Carlos Augusto Inter Actif 146 / 152 40% 3 24.10.2026 -
Georginio Rutter Brighton Actif 144 / 146 40% 2 22.10.2026 -
Tyler Adams Bournemouth Actif 156 / 145 40% 1 21.10.2026 -
Carlos Vicente Birmingham Actif 136 / 137 40% 1 16.10.2026 -
Jadon Sancho Manchester United Actif 150 / 159 40% 1 15.10.2026 -
Ryan Sessegnon Fulham Actif 148 / 155 40% 1 14.10.2026 -
Billy Gilmour Napoli Actif 150 / 141 40% 1 11.10.2026 -
Efraín Álvarez Guadalajara Actif 127 / 115 40% 1 09.10.2026 -
Elliot Anderson Manchester City Actif 147 / 150 40% 1 08.10.2026 -
Ozziel Herrera Tigres Actif 128 / 143 40% 1 08.10.2026 -
Mandla Erasmus SuperSport United Actif 119 / 111 40% 1 07.10.2026 -
Diogo Dalot Manchester United Actif 152 / 139 40% 2 08.09.2026 -
Mikkel Damsgaard Brentford Actif 147 / 139 40% 1 07.09.2026 -
Kevin Vazquez Cruz Azul Actif 143 / 130 40% 2 05.09.2026 -
Stefano Di Mario Virtus Entella Actif 108 / 120 40% 1 05.09.2026 -
Mateo Mendoza Godoy Cruz Actif 107 / 133 40% 1 05.09.2026 -
Bradley Ibrahim Plymouth Argyle Actif 110 / 117 40% 1 04.09.2026 -
Jack Hinshelwood Brighton Actif 146 / 134 40% 1 02.09.2026 -
Dávid Strelec Middlesbrough Actif 135 / 139 40% 1 02.09.2026 -
Telasco Segovia Inter Miami CF Actif 116 / 114 40% 1 01.09.2026 -
Yehor Yarmoliuk Brentford Actif 147 / 156 40% 1 01.09.2026 -
Ernie Weaver AFC Wimbledon Actif 99 / 121 40% 1 26.08.2026 -
Victor Froholdt Porto Actif 157 / 161 40% 1 26.08.2026 -
Nicolas Previtali Giana Erminio Actif 98 / 111 40% 1 25.08.2026 -
Darren Yapi Colorado Rapids Actif 107 / 120 40% 1 01.08.2026 -